sensor_id;sensor_type;location;lat;lon;timestamp;P1;durP1;ratioP1;P2;durP2;ratioP2
7239;SDS011;3661;53.288;10.458;2023-03-01T00:01:44;521.67;;;408.92;;
7239;SDS011;3661;53.288;10.458;2023-03-01T00:04:16;521.72;;;403.98;;
7239;SDS011;3661;53.288;10.458;2023-03-01T00:06:48;517.78;;;407.77;;
7239;SDS011;3661;53.288;10.458;2023-03-01T00:09:22;521.42;;;401.55;;
7239;SDS011;3661;53.288;10.458;2023-03-01T00:11:54;518.63;;;393.77;;
7239;SDS011;3661;53.288;10.458;2023-03-01T00:14:26;518.60;;;407.35;;
7239;SDS011;3661;53.288;10.458;2023-03-01T00:16:59;519.72;;;407.85;;
7239;SDS011;3661;53.288;10.458;2023-03-01T00:19:32;517.08;;;398.15;;
7239;SDS011;3661;53.288;10.458;2023-03-01T00:22:04;516.90;;;411.63;;
7239;SDS011;3661;53.288;10.458;2023-03-01T00:24:36;520.17;;;396.27;;
7239;SDS011;3661;53.288;10.458;2023-03-01T00:27:08;516.38;;;396.95;;
7239;SDS011;3661;53.288;10.458;2023-03-01T00:29:40;511.20;;;394.17;;
7239;SDS011;3661;53.288;10.458;2023-03-01T00:32:13;515.63;;;403.45;;
7239;SDS011;3661;53.288;10.458;2023-03-01T00:34:45;513.67;;;404.95;;
7239;SDS011;3661;53.288;10.458;2023-03-01T00:37:24;511.95;;;402.15;;
7239;SDS011;3661;53.288;10.458;2023-03-01T00:39:56;515.65;;;405.02;;
7239;SDS011;3661;53.288;10.458;2023-03-01T00:42:28;515.50;;;400.80;;
7239;SDS011;3661;53.288;10.458;2023-03-01T00:45:00;509.17;;;403.20;;
7239;SDS011;3661;53.288;10.458;2023-03-01T00:47:34;496.10;;;395.85;;
7239;SDS011;3661;53.288;10.458;2023-03-01T00:50:06;494.35;;;389.35;;
7239;SDS011;3661;53.288;10.458;2023-03-01T00:52:39;500.73;;;401.02;;
7239;SDS011;3661;53.288;10.458;2023-03-01T00:55:11;501.73;;;395.55;;
7239;SDS011;3661;53.288;10.458;2023-03-01T00:57:44;503.58;;;396.50;;
7239;SDS011;3661;53.288;10.458;2023-03-01T01:00:16;497.55;;;394.98;;
7239;SDS011;3661;53.288;10.458;2023-03-01T01:02:51;500.30;;;400.10;;
7239;SDS011;3661;53.288;10.458;2023-03-01T01:05:24;495.00;;;388.40;;
7239;SDS011;3661;53.288;10.458;2023-03-01T01:07:57;498.80;;;398.95;;
7239;SDS011;3661;53.288;10.458;2023-03-01T01:10:29;495.88;;;401.63;;
7239;SDS011;3661;53.288;10.458;2023-03-01T01:13:02;499.08;;;389.58;;
7239;SDS011;3661;53.288;10.458;2023-03-01T01:15:35;498.45;;;399.58;;
7239;SDS011;3661;53.288;10.458;2023-03-01T01:18:08;500.10;;;396.37;;
7239;SDS011;3661;53.288;10.458;2023-03-01T01:20:40;483.97;;;394.63;;
7239;SDS011;3661;53.288;10.458;2023-03-01T01:23:15;494.52;;;391.67;;
7239;SDS011;3661;53.288;10.458;2023-03-01T01:25:48;497.75;;;398.05;;
7239;SDS011;3661;53.288;10.458;2023-03-01T01:28:21;493.55;;;376.33;;
7239;SDS011;3661;53.288;10.458;2023-03-01T01:30:53;494.65;;;401.05;;
7239;SDS011;3661;53.288;10.458;2023-03-01T01:33:27;492.52;;;387.23;;
7239;SDS011;3661;53.288;10.458;2023-03-01T01:35:59;499.23;;;387.63;;
7239;SDS011;3661;53.288;10.458;2023-03-01T01:38:31;496.73;;;386.23;;
7239;SDS011;3661;53.288;10.458;2023-03-01T01:41:04;497.13;;;389.40;;
7239;SDS011;3661;53.288;10.458;2023-03-01T01:43:38;497.70;;;380.85;;
7239;SDS011;3661;53.288;10.458;2023-03-01T01:46:15;496.13;;;396.48;;
7239;SDS011;3661;53.288;10.458;2023-03-01T01:48:55;495.05;;;385.75;;
7239;SDS011;3661;53.288;10.458;2023-03-01T01:51:32;495.83;;;392.10;;
7239;SDS011;3661;53.288;10.458;2023-03-01T01:54:10;498.30;;;389.87;;
7239;SDS011;3661;53.288;10.458;2023-03-01T01:56:47;495.48;;;378.92;;
7239;SDS011;3661;53.288;10.458;2023-03-01T01:59:23;490.85;;;380.63;;
7239;SDS011;3661;53.288;10.458;2023-03-01T02:01:56;491.38;;;379.88;;
7239;SDS011;3661;53.288;10.458;2023-03-01T02:04:32;492.52;;;376.40;;
7239;SDS011;3661;53.288;10.458;2023-03-01T02:07:06;492.42;;;380.98;;
7239;SDS011;3661;53.288;10.458;2023-03-01T02:09:46;494.42;;;382.77;;
7239;SDS011;3661;53.288;10.458;2023-03-01T02:12:20;491.47;;;376.07;;
7239;SDS011;3661;53.288;10.458;2023-03-01T02:14:55;490.10;;;383.80;;
7239;SDS011;3661;53.288;10.458;2023-03-01T02:17:27;495.10;;;377.08;;
7239;SDS011;3661;53.288;10.458;2023-03-01T02:20:04;494.35;;;389.80;;
7239;SDS011;3661;53.288;10.458;2023-03-01T02:22:44;488.48;;;378.67;;
7239;SDS011;3661;53.288;10.458;2023-03-01T02:25:23;492.98;;;391.08;;
7239;SDS011;3661;53.288;10.458;2023-03-01T02:28:08;490.58;;;377.65;;
7239;SDS011;3661;53.288;10.458;2023-03-01T02:30:52;488.55;;;371.85;;
7239;SDS011;3661;53.288;10.458;2023-03-01T02:33:42;489.55;;;381.75;;
7239;SDS011;3661;53.288;10.458;2023-03-01T02:36:17;493.27;;;382.65;;
7239;SDS011;3661;53.288;10.458;2023-03-01T02:38:51;492.87;;;389.70;;
7239;SDS011;3661;53.288;10.458;2023-03-01T02:41:27;489.23;;;373.17;;
7239;SDS011;3661;53.288;10.458;2023-03-01T02:44:04;488.30;;;374.13;;
7239;SDS011;3661;53.288;10.458;2023-03-01T02:46:41;490.23;;;383.05;;
7239;SDS011;3661;53.288;10.458;2023-03-01T02:49:24;485.95;;;374.33;;
7239;SDS011;3661;53.288;10.458;2023-03-01T02:52:07;487.35;;;376.48;;
7239;SDS011;3661;53.288;10.458;2023-03-01T02:54:59;482.88;;;375.55;;
7239;SDS011;3661;53.288;10.458;2023-03-01T02:57:34;483.75;;;377.30;;
7239;SDS011;3661;53.288;10.458;2023-03-01T03:00:12;478.13;;;378.08;;
7239;SDS011;3661;53.288;10.458;2023-03-01T03:02:50;488.25;;;380.30;;
7239;SDS011;3661;53.288;10.458;2023-03-01T03:05:25;482.83;;;370.63;;
7239;SDS011;3661;53.288;10.458;2023-03-01T03:08:00;486.63;;;385.77;;
7239;SDS011;3661;53.288;10.458;2023-03-01T03:10:35;483.95;;;378.52;;
7239;SDS011;3661;53.288;10.458;2023-03-01T03:13:10;481.20;;;374.23;;
7239;SDS011;3661;53.288;10.458;2023-03-01T03:15:46;488.85;;;375.10;;
7239;SDS011;3661;53.288;10.458;2023-03-01T03:18:18;476.13;;;375.30;;
7239;SDS011;3661;53.288;10.458;2023-03-01T03:20:50;476.20;;;375.33;;
7239;SDS011;3661;53.288;10.458;2023-03-01T03:23:23;478.93;;;380.90;;
7239;SDS011;3661;53.288;10.458;2023-03-01T03:25:55;481.40;;;377.92;;
7239;SDS011;3661;53.288;10.458;2023-03-01T03:28:27;482.30;;;373.77;;
7239;SDS011;3661;53.288;10.458;2023-03-01T03:31:02;484.03;;;367.03;;
7239;SDS011;3661;53.288;10.458;2023-03-01T03:33:37;484.23;;;372.63;;
7239;SDS011;3661;53.288;10.458;2023-03-01T03:36:09;474.08;;;368.05;;
7239;SDS011;3661;53.288;10.458;2023-03-01T03:38:47;472.75;;;376.80;;
7239;SDS011;3661;53.288;10.458;2023-03-01T03:41:20;476.55;;;373.90;;
7239;SDS011;3661;53.288;10.458;2023-03-01T03:43:52;468.42;;;363.98;;
7239;SDS011;3661;53.288;10.458;2023-03-01T03:46:25;476.25;;;376.48;;
7239;SDS011;3661;53.288;10.458;2023-03-01T03:48:58;477.17;;;383.13;;
7239;SDS011;3661;53.288;10.458;2023-03-01T03:51:30;481.98;;;378.98;;
7239;SDS011;3661;53.288;10.458;2023-03-01T03:54:02;465.27;;;373.40;;
7239;SDS011;3661;53.288;10.458;2023-03-01T03:56:34;466.25;;;355.77;;
7239;SDS011;3661;53.288;10.458;2023-03-01T03:59:06;473.10;;;369.92;;
7239;SDS011;3661;53.288;10.458;2023-03-01T04:01:43;475.20;;;375.30;;
7239;SDS011;3661;53.288;10.458;2023-03-01T04:04:15;472.70;;;364.67;;
7239;SDS011;3661;53.288;10.458;2023-03-01T04:06:49;468.58;;;368.20;;
7239;SDS011;3661;53.288;10.458;2023-03-01T04:09:23;471.83;;;362.42;;
7239;SDS011;3661;53.288;10.458;2023-03-01T04:11:55;477.13;;;359.25;;
7239;SDS011;3661;53.288;10.458;2023-03-01T04:14:28;475.02;;;355.65;;
7239;SDS011;3661;53.288;10.458;2023-03-01T04:17:09;467.67;;;363.40;;
7239;SDS011;3661;53.288;10.458;2023-03-01T04:19:41;466.38;;;360.65;;
7239;SDS011;3661;53.288;10.458;2023-03-01T04:22:14;466.50;;;362.53;;
7239;SDS011;3661;53.288;10.458;2023-03-01T04:24:47;466.55;;;356.75;;
7239;SDS011;3661;53.288;10.458;2023-03-01T04:27:19;465.30;;;350.20;;
7239;SDS011;3661;53.288;10.458;2023-03-01T04:29:51;471.77;;;359.65;;
7239;SDS011;3661;53.288;10.458;2023-03-01T04:32:25;470.25;;;359.63;;
7239;SDS011;3661;53.288;10.458;2023-03-01T04:34:59;469.83;;;359.80;;
7239;SDS011;3661;53.288;10.458;2023-03-01T04:37:32;468.10;;;358.55;;
7239;SDS011;3661;53.288;10.458;2023-03-01T04:40:06;467.50;;;362.98;;
7239;SDS011;3661;53.288;10.458;2023-03-01T04:42:46;469.30;;;360.55;;
7239;SDS011;3661;53.288;10.458;2023-03-01T04:45:18;469.00;;;343.35;;
7239;SDS011;3661;53.288;10.458;2023-03-01T04:47:52;470.30;;;351.77;;
7239;SDS011;3661;53.288;10.458;2023-03-01T04:50:24;467.75;;;350.33;;
7239;SDS011;3661;53.288;10.458;2023-03-01T04:52:56;468.63;;;350.08;;
7239;SDS011;3661;53.288;10.458;2023-03-01T04:55:29;472.85;;;348.95;;
7239;SDS011;3661;53.288;10.458;2023-03-01T04:58:02;469.92;;;349.58;;
7239;SDS011;3661;53.288;10.458;2023-03-01T05:00:37;469.70;;;354.55;;
7239;SDS011;3661;53.288;10.458;2023-03-01T05:03:11;471.48;;;356.02;;
7239;SDS011;3661;53.288;10.458;2023-03-01T05:05:51;471.70;;;349.02;;
7239;SDS011;3661;53.288;10.458;2023-03-01T05:08:24;471.98;;;339.25;;
7239;SDS011;3661;53.288;10.458;2023-03-01T05:10:56;472.75;;;346.45;;
7239;SDS011;3661;53.288;10.458;2023-03-01T05:13:29;470.33;;;349.58;;
7239;SDS011;3661;53.288;10.458;2023-03-01T05:16:01;467.42;;;350.83;;
7239;SDS011;3661;53.288;10.458;2023-03-01T05:18:36;474.80;;;354.02;;
7239;SDS011;3661;53.288;10.458;2023-03-01T05:21:10;476.10;;;351.48;;
7239;SDS011;3661;53.288;10.458;2023-03-01T05:23:45;475.55;;;342.35;;
7239;SDS011;3661;53.288;10.458;2023-03-01T05:26:18;475.52;;;346.02;;
7239;SDS011;3661;53.288;10.458;2023-03-01T05:28:51;476.02;;;352.80;;
7239;SDS011;3661;53.288;10.458;2023-03-01T05:31:26;480.55;;;351.63;;
7239;SDS011;3661;53.288;10.458;2023-03-01T05:34:02;477.00;;;350.52;;
7239;SDS011;3661;53.288;10.458;2023-03-01T05:36:34;478.80;;;359.13;;
7239;SDS011;3661;53.288;10.458;2023-03-01T05:39:08;480.52;;;368.92;;
7239;SDS011;3661;53.288;10.458;2023-03-01T05:41:40;484.15;;;359.50;;
7239;SDS011;3661;53.288;10.458;2023-03-01T05:44:12;471.40;;;354.17;;
7239;SDS011;3661;53.288;10.458;2023-03-01T05:46:46;472.00;;;353.58;;
7239;SDS011;3661;53.288;10.458;2023-03-01T05:49:21;476.63;;;365.20;;
7239;SDS011;3661;53.288;10.458;2023-03-01T05:51:54;477.25;;;356.90;;
7239;SDS011;3661;53.288;10.458;2023-03-01T05:54:26;481.58;;;361.70;;
7239;SDS011;3661;53.288;10.458;2023-03-01T05:56:58;480.08;;;356.23;;
7239;SDS011;3661;53.288;10.458;2023-03-01T05:59:30;483.67;;;359.92;;
7239;SDS011;3661;53.288;10.458;2023-03-01T06:02:02;486.38;;;366.98;;
7239;SDS011;3661;53.288;10.458;2023-03-01T06:04:36;489.25;;;368.20;;
7239;SDS011;3661;53.288;10.458;2023-03-01T06:07:08;487.00;;;381.40;;
7239;SDS011;3661;53.288;10.458;2023-03-01T06:09:40;486.20;;;361.58;;
7239;SDS011;3661;53.288;10.458;2023-03-01T06:12:12;489.00;;;374.67;;
7239;SDS011;3661;53.288;10.458;2023-03-01T06:14:44;490.23;;;379.25;;
7239;SDS011;3661;53.288;10.458;2023-03-01T06:17:17;494.10;;;375.05;;
7239;SDS011;3661;53.288;10.458;2023-03-01T06:19:50;493.55;;;377.35;;
7239;SDS011;3661;53.288;10.458;2023-03-01T06:22:23;491.25;;;365.60;;
7239;SDS011;3661;53.288;10.458;2023-03-01T06:24:56;494.92;;;381.33;;
7239;SDS011;3661;53.288;10.458;2023-03-01T06:27:28;496.20;;;375.73;;
7239;SDS011;3661;53.288;10.458;2023-03-01T06:30:00;495.73;;;375.00;;
7239;SDS011;3661;53.288;10.458;2023-03-01T06:32:33;499.80;;;382.90;;
7239;SDS011;3661;53.288;10.458;2023-03-01T06:35:07;493.83;;;373.60;;
7239;SDS011;3661;53.288;10.458;2023-03-01T06:37:40;498.27;;;383.67;;
7239;SDS011;3661;53.288;10.458;2023-03-01T06:40:12;497.08;;;372.33;;
7239;SDS011;3661;53.288;10.458;2023-03-01T06:42:47;503.20;;;386.10;;
7239;SDS011;3661;53.288;10.458;2023-03-01T06:45:21;500.83;;;378.20;;
7239;SDS011;3661;53.288;10.458;2023-03-01T06:47:57;499.80;;;389.33;;
7239;SDS011;3661;53.288;10.458;2023-03-01T06:50:34;506.40;;;395.60;;
7239;SDS011;3661;53.288;10.458;2023-03-01T06:53:07;498.65;;;391.17;;
7239;SDS011;3661;53.288;10.458;2023-03-01T06:55:39;502.88;;;390.13;;
7239;SDS011;3661;53.288;10.458;2023-03-01T06:58:11;499.85;;;389.30;;
7239;SDS011;3661;53.288;10.458;2023-03-01T07:00:43;508.15;;;398.35;;
7239;SDS011;3661;53.288;10.458;2023-03-01T07:06:43;504.75;;;390.52;;
7239;SDS011;3661;53.288;10.458;2023-03-01T07:16:18;506.83;;;401.33;;
7239;SDS011;3661;53.288;10.458;2023-03-01T07:26:00;508.98;;;412.75;;
7239;SDS011;3661;53.288;10.458;2023-03-01T07:28:32;505.35;;;407.23;;
7239;SDS011;3661;53.288;10.458;2023-03-01T07:31:06;508.80;;;414.93;;
7239;SDS011;3661;53.288;10.458;2023-03-01T07:33:38;508.90;;;405.67;;
7239;SDS011;3661;53.288;10.458;2023-03-01T07:36:10;513.75;;;415.83;;
7239;SDS011;3661;53.288;10.458;2023-03-01T07:38:42;510.00;;;407.73;;
7239;SDS011;3661;53.288;10.458;2023-03-01T07:41:16;513.45;;;417.95;;
7239;SDS011;3661;53.288;10.458;2023-03-01T07:43:49;512.42;;;423.55;;
7239;SDS011;3661;53.288;10.458;2023-03-01T07:46:21;509.88;;;418.20;;
7239;SDS011;3661;53.288;10.458;2023-03-01T07:48:53;514.78;;;417.63;;
7239;SDS011;3661;53.288;10.458;2023-03-01T07:51:25;514.92;;;422.85;;
7239;SDS011;3661;53.288;10.458;2023-03-01T07:53:58;519.00;;;428.88;;
7239;SDS011;3661;53.288;10.458;2023-03-01T07:56:32;519.92;;;436.17;;
7239;SDS011;3661;53.288;10.458;2023-03-01T07:59:04;524.92;;;434.45;;
7239;SDS011;3661;53.288;10.458;2023-03-01T08:01:36;523.95;;;432.73;;
7239;SDS011;3661;53.288;10.458;2023-03-01T08:04:08;527.63;;;431.17;;
7239;SDS011;3661;53.288;10.458;2023-03-01T08:06:40;525.42;;;426.35;;
7239;SDS011;3661;53.288;10.458;2023-03-01T08:09:12;528.25;;;440.23;;
7239;SDS011;3661;53.288;10.458;2023-03-01T08:11:46;531.27;;;439.37;;
7239;SDS011;3661;53.288;10.458;2023-03-01T08:14:18;531.72;;;438.85;;
7239;SDS011;3661;53.288;10.458;2023-03-01T08:16:50;533.75;;;435.10;;
7239;SDS011;3661;53.288;10.458;2023-03-01T08:19:22;533.22;;;439.30;;
7239;SDS011;3661;53.288;10.458;2023-03-01T08:21:55;537.03;;;451.05;;
7239;SDS011;3661;53.288;10.458;2023-03-01T08:24:28;541.83;;;448.58;;
7239;SDS011;3661;53.288;10.458;2023-03-01T08:27:03;537.60;;;452.02;;
7239;SDS011;3661;53.288;10.458;2023-03-01T08:29:36;544.35;;;456.95;;
7239;SDS011;3661;53.288;10.458;2023-03-01T08:32:08;547.35;;;454.52;;
7239;SDS011;3661;53.288;10.458;2023-03-01T08:34:40;544.20;;;463.30;;
7239;SDS011;3661;53.288;10.458;2023-03-01T08:37:12;543.17;;;471.83;;
7239;SDS011;3661;53.288;10.458;2023-03-01T08:39:44;546.15;;;472.92;;
7239;SDS011;3661;53.288;10.458;2023-03-01T08:42:17;551.47;;;473.98;;
7239;SDS011;3661;53.288;10.458;2023-03-01T08:44:49;554.70;;;470.50;;
7239;SDS011;3661;53.288;10.458;2023-03-01T08:47:21;556.83;;;485.33;;
7239;SDS011;3661;53.288;10.458;2023-03-01T08:49:56;568.00;;;497.48;;
7239;SDS011;3661;53.288;10.458;2023-03-01T08:52:28;567.72;;;491.75;;
7239;SDS011;3661;53.288;10.458;2023-03-01T08:55:00;570.55;;;507.30;;
7239;SDS011;3661;53.288;10.458;2023-03-01T08:57:34;570.08;;;507.08;;
7239;SDS011;3661;53.288;10.458;2023-03-01T09:00:07;564.47;;;495.63;;
7239;SDS011;3661;53.288;10.458;2023-03-01T09:02:39;564.03;;;502.20;;
7239;SDS011;3661;53.288;10.458;2023-03-01T09:05:12;579.03;;;516.93;;
7239;SDS011;3661;53.288;10.458;2023-03-01T09:07:44;596.55;;;535.33;;
7239;SDS011;3661;53.288;10.458;2023-03-01T09:10:16;588.15;;;526.00;;
7239;SDS011;3661;53.288;10.458;2023-03-01T09:12:49;580.03;;;517.67;;
7239;SDS011;3661;53.288;10.458;2023-03-01T09:15:22;604.65;;;542.58;;
7239;SDS011;3661;53.288;10.458;2023-03-01T09:17:54;601.13;;;539.25;;
7239;SDS011;3661;53.288;10.458;2023-03-01T09:20:26;595.30;;;533.60;;
7239;SDS011;3661;53.288;10.458;2023-03-01T09:22:59;600.95;;;537.83;;
7239;SDS011;3661;53.288;10.458;2023-03-01T09:25:31;631.20;;;567.40;;
7239;SDS011;3661;53.288;10.458;2023-03-01T09:31:33;645.00;;;579.15;;
7239;SDS011;3661;53.288;10.458;2023-03-01T09:37:32;667.97;;;601.40;;
7239;SDS011;3661;53.288;10.458;2023-03-01T09:43:34;680.92;;;614.08;;
7239;SDS011;3661;53.288;10.458;2023-03-01T09:49:41;692.53;;;624.75;;
7239;SDS011;3661;53.288;10.458;2023-03-01T09:56:04;729.67;;;661.15;;
7239;SDS011;3661;53.288;10.458;2023-03-01T10:02:14;752.05;;;682.03;;
7239;SDS011;3661;53.288;10.458;2023-03-01T10:19:21;806.53;;;733.20;;
7239;SDS011;3661;53.288;10.458;2023-03-01T10:22:00;838.00;;;764.10;;
7239;SDS011;3661;53.288;10.458;2023-03-01T10:24:36;836.08;;;761.78;;
7239;SDS011;3661;53.288;10.458;2023-03-01T10:27:09;876.10;;;801.20;;
7239;SDS011;3661;53.288;10.458;2023-03-01T10:29:48;888.35;;;813.35;;
7239;SDS011;3661;53.288;10.458;2023-03-01T10:32:32;896.22;;;820.38;;
7239;SDS011;3661;53.288;10.458;2023-03-01T10:35:16;921.65;;;845.42;;
7239;SDS011;3661;53.288;10.458;2023-03-01T10:37:56;939.33;;;862.20;;
7239;SDS011;3661;53.288;10.458;2023-03-01T10:40:30;943.13;;;865.87;;
7239;SDS011;3661;53.288;10.458;2023-03-01T10:43:02;975.28;;;897.15;;
7239;SDS011;3661;53.288;10.458;2023-03-01T10:45:36;994.50;;;915.47;;
7239;SDS011;3661;53.288;10.458;2023-03-01T10:48:14;1010.95;;;931.38;;
7239;SDS011;3661;53.288;10.458;2023-03-01T10:50:49;1110.95;;;999.90;;
7239;SDS011;3661;53.288;10.458;2023-03-01T10:53:24;1178.45;;;999.90;;
7239;SDS011;3661;53.288;10.458;2023-03-01T10:55:59;1237.25;;;999.90;;
7239;SDS011;3661;53.288;10.458;2023-03-01T10:58:34;1190.47;;;999.90;;
7239;SDS011;3661;53.288;10.458;2023-03-01T11:04:10;1250.85;;;999.90;;
7239;SDS011;3661;53.288;10.458;2023-03-01T11:06:44;1262.57;;;999.90;;
7239;SDS011;3661;53.288;10.458;2023-03-01T11:09:30;1333.20;;;999.90;;
7239;SDS011;3661;53.288;10.458;2023-03-01T11:12:13;1375.30;;;999.90;;
7239;SDS011;3661;53.288;10.458;2023-03-01T11:14:47;1384.82;;;999.90;;
7239;SDS011;3661;53.288;10.458;2023-03-01T11:17:27;1375.03;;;999.90;;
7239;SDS011;3661;53.288;10.458;2023-03-01T11:20:05;1388.38;;;999.90;;
7239;SDS011;3661;53.288;10.458;2023-03-01T11:22:56;1432.53;;;999.90;;
7239;SDS011;3661;53.288;10.458;2023-03-01T11:25:33;1422.25;;;999.90;;
7239;SDS011;3661;53.288;10.458;2023-03-01T11:28:10;1433.23;;;999.90;;
7239;SDS011;3661;53.288;10.458;2023-03-01T11:30:48;1446.72;;;999.90;;
7239;SDS011;3661;53.288;10.458;2023-03-01T11:33:32;1435.10;;;999.90;;
7239;SDS011;3661;53.288;10.458;2023-03-01T11:36:11;1466.75;;;999.90;;
7239;SDS011;3661;53.288;10.458;2023-03-01T11:38:50;1464.47;;;999.90;;
7239;SDS011;3661;53.288;10.458;2023-03-01T11:41:25;1494.55;;;999.90;;
7239;SDS011;3661;53.288;10.458;2023-03-01T11:44:00;1515.30;;;999.90;;
7239;SDS011;3661;53.288;10.458;2023-03-01T11:46:41;1500.07;;;999.90;;
7239;SDS011;3661;53.288;10.458;2023-03-01T11:49:30;1517.63;;;999.90;;
7239;SDS011;3661;53.288;10.458;2023-03-01T11:52:21;1495.10;;;999.90;;
7239;SDS011;3661;53.288;10.458;2023-03-01T11:55:07;1505.72;;;999.90;;
7239;SDS011;3661;53.288;10.458;2023-03-01T11:58:04;1514.60;;;999.90;;
7239;SDS011;3661;53.288;10.458;2023-03-01T12:00:55;1536.22;;;999.90;;
7239;SDS011;3661;53.288;10.458;2023-03-01T12:04:00;1549.15;;;999.90;;
7239;SDS011;3661;53.288;10.458;2023-03-01T12:07:02;1532.15;;;999.90;;
7239;SDS011;3661;53.288;10.458;2023-03-01T12:09:46;1550.43;;;999.90;;
7239;SDS011;3661;53.288;10.458;2023-03-01T12:12:32;1544.07;;;999.90;;
7239;SDS011;3661;53.288;10.458;2023-03-01T12:18:20;1547.50;;;999.90;;
7239;SDS011;3661;53.288;10.458;2023-03-01T12:21:40;1548.82;;;999.90;;
7239;SDS011;3661;53.288;10.458;2023-03-01T12:24:29;1565.47;;;999.90;;
7239;SDS011;3661;53.288;10.458;2023-03-01T12:27:20;1563.82;;;999.90;;
7239;SDS011;3661;53.288;10.458;2023-03-01T12:30:35;1574.17;;;999.90;;
7239;SDS011;3661;53.288;10.458;2023-03-01T12:33:40;1587.35;;;999.90;;
7239;SDS011;3661;53.288;10.458;2023-03-01T12:36:25;1575.72;;;999.90;;
7239;SDS011;3661;53.288;10.458;2023-03-01T12:39:15;1593.85;;;999.90;;
7239;SDS011;3661;53.288;10.458;2023-03-01T12:41:58;1599.70;;;999.90;;
7239;SDS011;3661;53.288;10.458;2023-03-01T12:44:41;1614.77;;;999.90;;
7239;SDS011;3661;53.288;10.458;2023-03-01T12:47:32;1616.85;;;999.90;;
7239;SDS011;3661;53.288;10.458;2023-03-01T12:50:23;1623.53;;;999.90;;
7239;SDS011;3661;53.288;10.458;2023-03-01T12:52:57;1611.00;;;999.90;;
7239;SDS011;3661;53.288;10.458;2023-03-01T12:55:31;1622.85;;;999.90;;
7239;SDS011;3661;53.288;10.458;2023-03-01T12:58:07;1611.80;;;999.90;;
7239;SDS011;3661;53.288;10.458;2023-03-01T13:01:03;1647.35;;;999.90;;
7239;SDS011;3661;53.288;10.458;2023-03-01T13:03:51;1603.65;;;999.90;;
7239;SDS011;3661;53.288;10.458;2023-03-01T13:06:35;1634.72;;;999.90;;
7239;SDS011;3661;53.288;10.458;2023-03-01T13:09:14;1616.82;;;999.90;;
7239;SDS011;3661;53.288;10.458;2023-03-01T13:11:54;1632.13;;;999.90;;
7239;SDS011;3661;53.288;10.458;2023-03-01T13:14:45;1653.18;;;999.90;;
7239;SDS011;3661;53.288;10.458;2023-03-01T13:17:31;1661.57;;;999.90;;
7239;SDS011;3661;53.288;10.458;2023-03-01T13:20:11;1645.03;;;999.90;;
7239;SDS011;3661;53.288;10.458;2023-03-01T13:22:46;1636.07;;;999.90;;
7239;SDS011;3661;53.288;10.458;2023-03-01T13:25:19;1653.27;;;999.90;;
7239;SDS011;3661;53.288;10.458;2023-03-01T13:27:51;1651.82;;;999.90;;
7239;SDS011;3661;53.288;10.458;2023-03-01T13:31:05;1675.88;;;999.90;;
7239;SDS011;3661;53.288;10.458;2023-03-01T13:33:41;1668.97;;;999.90;;
7239;SDS011;3661;53.288;10.458;2023-03-01T13:39:28;1685.57;;;999.90;;
7239;SDS011;3661;53.288;10.458;2023-03-01T13:42:03;1682.88;;;999.90;;
7239;SDS011;3661;53.288;10.458;2023-03-01T13:44:55;1695.28;;;999.90;;
7239;SDS011;3661;53.288;10.458;2023-03-01T13:47:28;1675.15;;;999.90;;
7239;SDS011;3661;53.288;10.458;2023-03-01T13:50:01;1681.93;;;999.90;;
7239;SDS011;3661;53.288;10.458;2023-03-01T13:52:37;1691.30;;;999.90;;
7239;SDS011;3661;53.288;10.458;2023-03-01T13:55:16;1681.53;;;999.90;;
7239;SDS011;3661;53.288;10.458;2023-03-01T13:57:53;1683.38;;;999.90;;
7239;SDS011;3661;53.288;10.458;2023-03-01T14:00:29;1712.03;;;999.90;;
7239;SDS011;3661;53.288;10.458;2023-03-01T14:03:04;1698.28;;;999.90;;
7239;SDS011;3661;53.288;10.458;2023-03-01T14:05:57;1719.28;;;999.90;;
7239;SDS011;3661;53.288;10.458;2023-03-01T14:08:37;1708.35;;;999.90;;
7239;SDS011;3661;53.288;10.458;2023-03-01T14:11:20;1701.90;;;999.90;;
7239;SDS011;3661;53.288;10.458;2023-03-01T14:14:06;1699.27;;;999.90;;
7239;SDS011;3661;53.288;10.458;2023-03-01T14:16:58;1691.47;;;999.90;;
7239;SDS011;3661;53.288;10.458;2023-03-01T14:19:39;1711.53;;;999.90;;
7239;SDS011;3661;53.288;10.458;2023-03-01T14:22:16;1709.82;;;999.90;;
7239;SDS011;3661;53.288;10.458;2023-03-01T14:24:55;1707.77;;;999.90;;
7239;SDS011;3661;53.288;10.458;2023-03-01T14:27:32;1703.03;;;999.90;;
7239;SDS011;3661;53.288;10.458;2023-03-01T14:30:13;1739.03;;;999.90;;
7239;SDS011;3661;53.288;10.458;2023-03-01T14:32:52;1737.97;;;999.90;;
7239;SDS011;3661;53.288;10.458;2023-03-01T14:35:27;1710.55;;;999.90;;
7239;SDS011;3661;53.288;10.458;2023-03-01T14:38:00;1729.70;;;999.90;;
7239;SDS011;3661;53.288;10.458;2023-03-01T14:40:35;1727.10;;;999.90;;
7239;SDS011;3661;53.288;10.458;2023-03-01T14:43:09;1713.78;;;999.90;;
7239;SDS011;3661;53.288;10.458;2023-03-01T14:45:46;1727.25;;;999.90;;
7239;SDS011;3661;53.288;10.458;2023-03-01T14:48:19;1729.85;;;999.90;;
7239;SDS011;3661;53.288;10.458;2023-03-01T14:50:51;1731.90;;;999.90;;
7239;SDS011;3661;53.288;10.458;2023-03-01T14:53:24;1719.97;;;999.90;;
7239;SDS011;3661;53.288;10.458;2023-03-01T14:56:00;1718.15;;;999.90;;
7239;SDS011;3661;53.288;10.458;2023-03-01T14:58:33;1703.53;;;999.90;;
7239;SDS011;3661;53.288;10.458;2023-03-01T15:01:05;1703.88;;;999.90;;
7239;SDS011;3661;53.288;10.458;2023-03-01T15:03:40;1722.68;;;999.90;;
7239;SDS011;3661;53.288;10.458;2023-03-01T15:06:14;1712.47;;;999.90;;
7239;SDS011;3661;53.288;10.458;2023-03-01T15:08:49;1735.30;;;999.90;;
7239;SDS011;3661;53.288;10.458;2023-03-01T15:11:27;1726.05;;;999.90;;
7239;SDS011;3661;53.288;10.458;2023-03-01T15:14:00;1724.93;;;999.90;;
7239;SDS011;3661;53.288;10.458;2023-03-01T15:16:32;1725.10;;;999.90;;
7239;SDS011;3661;53.288;10.458;2023-03-01T15:19:06;1707.95;;;999.90;;
7239;SDS011;3661;53.288;10.458;2023-03-01T15:21:38;1728.82;;;999.90;;
7239;SDS011;3661;53.288;10.458;2023-03-01T15:24:16;1713.67;;;999.90;;
7239;SDS011;3661;53.288;10.458;2023-03-01T15:26:56;1739.28;;;999.90;;
7239;SDS011;3661;53.288;10.458;2023-03-01T15:29:32;1728.35;;;999.90;;
7239;SDS011;3661;53.288;10.458;2023-03-01T15:32:22;1729.05;;;999.90;;
7239;SDS011;3661;53.288;10.458;2023-03-01T15:34:58;1718.75;;;999.90;;
7239;SDS011;3661;53.288;10.458;2023-03-01T15:37:36;1713.83;;;999.90;;
7239;SDS011;3661;53.288;10.458;2023-03-01T15:40:18;1711.68;;;999.90;;
7239;SDS011;3661;53.288;10.458;2023-03-01T15:42:55;1700.43;;;999.90;;
7239;SDS011;3661;53.288;10.458;2023-03-01T15:45:28;1703.80;;;999.90;;
7239;SDS011;3661;53.288;10.458;2023-03-01T15:48:02;1686.15;;;999.90;;
7239;SDS011;3661;53.288;10.458;2023-03-01T15:50:35;1689.35;;;999.90;;
7239;SDS011;3661;53.288;10.458;2023-03-01T15:53:10;1678.60;;;999.90;;
7239;SDS011;3661;53.288;10.458;2023-03-01T15:55:44;1700.60;;;999.90;;
7239;SDS011;3661;53.288;10.458;2023-03-01T15:58:21;1671.07;;;999.90;;